»·PEaware :: N5232K KSNA-KCRQ

N5232K :: KSNA-KCRQ

FLIGHT INFORMATION

Flight Status: Arrived
Operator: Privately registered:
United States
More flights under this callsign
Pilot: Anonymous 29077 (29077)
Aircraft: CESSNA 172 SKYHAWK
(C172)
More flights by this aircraft type
Origin: KSNA John Wayne-Orange Co
United States
Destination: KCRQ McClellan-Palomar
United States
More flights between these airports :: More routes between these airports
Route: V23 OCN
File this flight plan on PilotEdge
Remarks: none
Altitude:
(Current/Filed)
5,000ft
Speed:
(Current/Filed)
150kts
Departed: 30-Nov-20 02:58 PM
Arrived: 30-Nov-20 03:36 PM
Distance/Time
Traveled:
44nm/0:38
Distance/Time
To Go:
Arrived

Flight Plot

Page will automatically refresh every two minutes.


Map Options




Map Legend


Flown Route
Filed Route
Departure Airport
Arrival Airport
Navaid (VOR, NDB)
Fix

Horizontal Profiles

Position Reports

Time Latitude Longitude Heading Altitude Ground
Speed
30-Nov-20 14:46 33.675431 -117.871593 220 60ft 0kts
30-Nov-20 14:47 33.675431 -117.871593 220 60ft 0kts
30-Nov-20 14:48 33.675431 -117.871593 220 60ft 0kts
30-Nov-20 14:49 33.675431 -117.871593 220 60ft 0kts
30-Nov-20 14:50 33.675431 -117.871593 220 60ft 0kts
30-Nov-20 14:51 33.675431 -117.871593 220 60ft 0kts
30-Nov-20 14:52 33.675431 -117.871593 220 60ft 0kts
30-Nov-20 14:53 33.675114 -117.871320 126 60ft 6kts
30-Nov-20 14:54 33.679672 -117.867954 21 60ft 14kts
30-Nov-20 14:55 33.681259 -117.866649 90 60ft 0kts
30-Nov-20 14:56 33.681259 -117.866633 91 60ft 2kts
30-Nov-20 14:57 33.679890 -117.866196 206 60ft 47kts
30-Nov-20 14:58 33.660543 -117.875200 185 1024ft 78kts
30-Nov-20 14:59 33.638774 -117.876591 183 2067ft 81kts
30-Nov-20 15:00 33.616594 -117.879379 186 3066ft 81kts
30-Nov-20 15:01 33.594000 -117.882616 185 3988ft 82kts
30-Nov-20 15:02 33.579035 -117.866003 111 4841ft 82kts
30-Nov-20 15:03 33.566145 -117.832931 110 5073ft 117kts
30-Nov-20 15:04 33.550797 -117.794138 122 4988ft 131kts
30-Nov-20 15:05 33.531551 -117.756873 136 4909ft 134kts
30-Nov-20 15:06 33.504485 -117.727839 131 4949ft 131kts
30-Nov-20 15:07 33.477495 -117.698176 141 4937ft 131kts
30-Nov-20 15:08 33.450934 -117.668161 131 4913ft 133kts
30-Nov-20 15:09 33.427410 -117.634897 139 4932ft 131kts
30-Nov-20 15:10 33.400610 -117.605913 127 4925ft 130kts
30-Nov-20 15:11 33.374925 -117.575255 145 4926ft 131kts
30-Nov-20 15:12 33.347050 -117.546860 132 4903ft 132kts
30-Nov-20 15:13 33.323985 -117.513292 131 4906ft 131kts
30-Nov-20 15:14 33.296653 -117.484272 133 4881ft 132kts
30-Nov-20 15:15 33.272122 -117.452615 135 4980ft 128kts
30-Nov-20 15:16 33.246868 -117.421749 136 4986ft 131kts
30-Nov-20 15:17 33.225177 -117.387307 111 4965ft 131kts
30-Nov-20 15:18 33.222513 -117.343936 93 4965ft 131kts
30-Nov-20 15:19 33.221418 -117.300561 89 4976ft 131kts
30-Nov-20 15:20 33.219244 -117.257633 97 4627ft 130kts
30-Nov-20 15:21 33.215792 -117.215362 98 3929ft 126kts
30-Nov-20 15:22 33.212964 -117.174446 97 4006ft 121kts
30-Nov-20 15:23 33.208299 -117.134315 98 3893ft 125kts
30-Nov-20 15:24 33.206953 -117.094821 93 3924ft 116kts
30-Nov-20 15:25 33.207171 -117.056191 88 3911ft 115kts
30-Nov-20 15:26 33.186668 -117.039579 216 3960ft 110kts
30-Nov-20 15:27 33.168099 -117.069966 239 3729ft 107kts
30-Nov-20 15:28 33.156193 -117.101691 264 3301ft 104kts
30-Nov-20 15:29 33.150656 -117.134447 257 2472ft 98kts
30-Nov-20 15:30 33.147500 -117.166845 262 2159ft 96kts
30-Nov-20 15:31 33.141335 -117.197606 259 1770ft 96kts
30-Nov-20 15:32 33.136778 -117.228288 255 1101ft 94kts
30-Nov-20 15:33 33.131451 -117.258589 263 605ft 94kts
30-Nov-20 15:34 33.127476 -117.284978 259 335ft 54kts
30-Nov-20 15:35 33.126422 -117.286302 76 335ft 11kts
30-Nov-20 15:36 33.126376 -117.285662 107 335ft 0kts
30-Nov-20 15:37 33.126376 -117.285662 107 335ft 0kts
30-Nov-20 15:38 33.126376 -117.285662 107 335ft 0kts
30-Nov-20 15:39 33.126376 -117.285662 107 335ft 0kts
30-Nov-20 15:40 33.126376 -117.285662 107 335ft 0kts
30-Nov-20 15:41 33.126376 -117.285662 107 335ft 0kts
30-Nov-20 15:42 33.126376 -117.285662 107 335ft 0kts
30-Nov-20 15:43 33.126376 -117.285662 107 335ft 0kts
30-Nov-20 15:44 33.126376 -117.285662 107 335ft 0kts
30-Nov-20 15:45 33.126376 -117.285662 107 335ft 0kts
30-Nov-20 15:46 33.126376 -117.285662 107 335ft 0kts
30-Nov-20 15:47 33.126376 -117.285662 107 335ft 0kts
30-Nov-20 15:48 33.126376 -117.285662 107 335ft 0kts
30-Nov-20 15:49 33.126376 -117.285662 107 335ft 0kts

Navigation Log

Ident Type
Flight plan parsing failed, navigation log unavailable